Time;durP1;ratioP1;P1;durP2;ratioP2;P2;SDS_P1;SDS_P2;PMS_P1;PMS_P2;Temp;Humidity;BMP_temperature;BMP_pressure;BME280_temperature;BME280_humidity;BME280_pressure;Samples;Min_cycle;Max_cycle;Signal;HPM_P1;HPM_P2
2019/05/30 00:00:43;;;;;;;21.6;19.4;;;;;;;9.9;100;967.8787;;;;
2019/05/30 00:03:08;;;;;;;26;23.4;;;;;;;9.89;100;967.8842;;;;
2019/05/30 00:05:34;;;;;;;32.6;29.1;;;;;;;9.78;100;967.8469;;;;
2019/05/30 00:08:10;;;;;;;26.1;23.4;;;;;;;9.76;100;967.947;;;;
2019/05/30 00:10:34;;;;;;;31.8;27;;;;;;;9.71;100;967.943;;;;
2019/05/30 00:13:14;;;;;;;30.8;27.4;;;;;;;9.6;100;967.8333;;;;
2019/05/30 00:15:43;;;;;;;34;30.3;;;;;;;9.48;100;967.8778;;;;
2019/05/30 00:18:08;;;;;;;28.2;25.2;;;;;;;9.48;100;967.8819;;;;
2019/05/30 00:20:34;;;;;;;46.5;36.6;;;;;;;9.41;100;967.8206;;;;
2019/05/30 00:23:06;;;;;;;31.7;28.3;;;;;;;9.38;100;967.8312;;;;
2019/05/30 00:25:32;;;;;;;37.8;32.3;;;;;;;9.29;100;967.8903;;;;
2019/05/30 00:27:57;;;;;;;34.5;30.8;;;;;;;9.21;100;967.9483;;;;
2019/05/30 00:30:24;;;;;;;35.8;29.9;;;;;;;9.22;100;967.9435;;;;
2019/05/30 00:32:49;;;;;;;38.7;31.1;;;;;;;9.1;100;967.9916;;;;
2019/05/30 00:35:15;;;;;;;39.9;34;;;;;;;9.03;100;967.9853;;;;
2019/05/30 00:37:40;;;;;;;40.3;33.4;;;;;;;8.93;100;967.9932;;;;
2019/05/30 00:40:05;;;;;;;48.2;37.1;;;;;;;8.92;100;968.0282;;;;
2019/05/30 00:42:32;;;;;;;44.3;34.8;;;;;;;8.89;100;967.9971;;;;
2019/05/30 00:44:58;;;;;;;53.9;39.8;;;;;;;8.81;100;967.936;;;;
2019/05/30 00:47:32;;;;;;;36.8;30.3;;;;;;;8.73;100;967.9297;;;;
2019/05/30 00:49:58;;;;;;;36.2;31.4;;;;;;;8.66;100;967.936;;;;
2019/05/30 00:52:27;;;;;;;34.7;30.6;;;;;;;8.63;100;967.9849;;;;
2019/05/30 00:54:52;;;;;;;46.2;37.7;;;;;;;8.57;100;967.9598;;;;
2019/05/30 00:57:17;;;;;;;39.6;32.1;;;;;;;8.5;100;967.9877;;;;
2019/05/30 00:59:43;;;;;;;58.1;41;;;;;;;8.43;100;967.9338;;;;
2019/05/30 01:02:27;;;;;;;41.3;33.4;;;;;;;8.34;100;967.9788;;;;
2019/05/30 01:04:53;;;;;;;40.2;32.6;;;;;;;8.3;100;967.9228;;;;
2019/05/30 01:07:24;;;;;;;69.2;45.5;;;;;;;8.27;100;967.985;;;;
2019/05/30 01:09:52;;;;;;;56.8;40.7;;;;;;;8.24;100;968.0347;;;;
2019/05/30 01:12:21;;;;;;;49.6;39.1;;;;;;;8.19;100;968.017;;;;
2019/05/30 01:14:48;;;;;;;51.4;38.4;;;;;;;8.18;100;968.0516;;;;
2019/05/30 01:17:40;;;;;;;48.7;38.9;;;;;;;8.24;100;968.0085;;;;
2019/05/30 01:20:24;;;;;;;40.5;35.1;;;;;;;8.27;100;967.9635;;;;
2019/05/30 01:22:49;;;;;;;43.9;34.9;;;;;;;8.23;100;967.9498;;;;
2019/05/30 01:25:14;;;;;;;70.9;47.6;;;;;;;8.15;100;967.9443;;;;
2019/05/30 01:27:52;;;;;;;62.5;43.9;;;;;;;8.08;100;967.937;;;;
2019/05/30 01:30:17;;;;;;;56.7;41.1;;;;;;;8.01;100;967.9637;;;;
2019/05/30 01:32:42;;;;;;;64.5;46.3;;;;;;;8.01;100;967.9385;;;;
2019/05/30 01:35:07;;;;;;;61.6;44;;;;;;;8.04;100;967.9568;;;;
2019/05/30 01:37:34;;;;;;;48.7;39.5;;;;;;;7.96;100;967.8914;;;;
2019/05/30 01:40:13;;;;;;;79.9;49.3;;;;;;;7.94;100;967.9356;;;;
2019/05/30 01:42:56;;;;;;;81.4;50.5;;;;;;;7.88;100;967.885;;;;
2019/05/30 01:45:23;;;;;;;61.7;44;;;;;;;7.85;100;967.9129;;;;
2019/05/30 01:47:51;;;;;;;48.9;38.2;;;;;;;7.8;100;967.875;;;;
2019/05/30 01:50:16;;;;;;;56.2;41.7;;;;;;;7.76;100;967.8351;;;;
2019/05/30 01:52:41;;;;;;;56.4;41.3;;;;;;;7.72;100;967.843;;;;
2019/05/30 01:55:06;;;;;;;68.6;45.3;;;;;;;7.69;100;967.8915;;;;
2019/05/30 01:57:33;;;;;;;76.6;50;;;;;;;7.66;100;967.8734;;;;
2019/05/30 02:00:16;;;;;;;66.7;45.8;;;;;;;7.62;100;967.8979;;;;
2019/05/30 02:02:41;;;;;;;54;41.1;;;;;;;7.59;100;967.8702;;;;
2019/05/30 02:05:06;;;;;;;77.2;48.5;;;;;;;7.59;100;967.8487;;;;
2019/05/30 02:07:32;;;;;;;65.1;46.3;;;;;;;7.59;100;967.8232;;;;
2019/05/30 02:09:57;;;;;;;57.6;43.2;;;;;;;7.61;100;967.915;;;;
2019/05/30 02:12:24;;;;;;;65.2;46.3;;;;;;;7.57;100;967.8506;;;;
2019/05/30 02:14:50;;;;;;;66.4;45.6;;;;;;;7.55;100;967.8611;;;;
2019/05/30 02:17:17;;;;;;;71.6;46.1;;;;;;;7.53;100;967.9261;;;;
2019/05/30 02:19:44;;;;;;;78.6;49.6;;;;;;;7.5;100;967.9156;;;;
2019/05/30 02:22:09;;;;;;;94.9;54.8;;;;;;;7.45;100;967.9194;;;;
2019/05/30 02:24:35;;;;;;;75.3;48.3;;;;;;;7.44;100;968.0313;;;;
2019/05/30 02:27:00;;;;;;;70;47.3;;;;;;;7.41;100;967.9994;;;;
2019/05/30 02:29:27;;;;;;;58.8;43.9;;;;;;;7.38;100;967.9977;;;;
2019/05/30 02:31:53;;;;;;;77.8;51.5;;;;;;;7.37;100;968.0064;;;;
2019/05/30 02:34:19;;;;;;;57.6;42.7;;;;;;;7.33;100;968.014;;;;
2019/05/30 02:36:44;;;;;;;57.6;42.3;;;;;;;7.32;100;968.0314;;;;
2019/05/30 02:39:09;;;;;;;71.8;50;;;;;;;7.36;100;967.9903;;;;
2019/05/30 02:41:34;;;;;;;57.7;41.6;;;;;;;7.36;100;968.0332;;;;
2019/05/30 02:43:59;;;;;;;68.4;48.3;;;;;;;7.33;100;967.9927;;;;
2019/05/30 02:46:35;;;;;;;62;45.1;;;;;;;7.38;100;968.0948;;;;
2019/05/30 02:49:08;;;;;;;65.2;46.5;;;;;;;7.33;100;968.0778;;;;
2019/05/30 02:51:33;;;;;;;61.2;44.8;;;;;;;7.3;100;968.135;;;;
2019/05/30 02:53:58;;;;;;;81.3;52.7;;;;;;;7.25;100;968.097;;;;
2019/05/30 02:56:25;;;;;;;89.8;56.4;;;;;;;7.22;100;968.1117;;;;
2019/05/30 02:58:52;;;;;;;69.1;47.5;;;;;;;7.19;100;968.1227;;;;
2019/05/30 03:01:21;;;;;;;66.4;45.7;;;;;;;7.12;100;968.1025;;;;
2019/05/30 03:03:46;;;;;;;55.8;42.1;;;;;;;7.14;100;968.1223;;;;
2019/05/30 03:06:16;;;;;;;53.5;39.4;;;;;;;7.07;100;968.1744;;;;
2019/05/30 03:08:42;;;;;;;43.5;34.8;;;;;;;7.05;100;968.1636;;;;
2019/05/30 03:11:07;;;;;;;58.9;42.6;;;;;;;7.01;100;968.1792;;;;
2019/05/30 03:13:33;;;;;;;54.5;39.8;;;;;;;6.96;100;968.2297;;;;
2019/05/30 03:15:59;;;;;;;99.4;56;;;;;;;6.93;100;968.2232;;;;
2019/05/30 03:18:34;;;;;;;54.8;41.3;;;;;;;6.89;100;968.2267;;;;
2019/05/30 03:20:59;;;;;;;79.2;48.6;;;;;;;6.84;100;968.2597;;;;
2019/05/30 03:23:32;;;;;;;48.8;38.4;;;;;;;6.88;100;968.3038;;;;
2019/05/30 03:25:59;;;;;;;61.2;43.5;;;;;;;6.96;100;968.3528;;;;
2019/05/30 03:28:24;;;;;;;54;41.1;;;;;;;7.07;100;968.3056;;;;
2019/05/30 03:30:54;;;;;;;47.7;38.8;;;;;;;7.13;100;968.3524;;;;
2019/05/30 03:33:25;;;;;;;41.3;34.5;;;;;;;7.14;100;968.2703;;;;
2019/05/30 03:35:50;;;;;;;49.7;39.2;;;;;;;7.19;100;968.3217;;;;
2019/05/30 03:38:24;;;;;;;46.9;37.1;;;;;;;7.21;100;968.3412;;;;
2019/05/30 03:40:49;;;;;;;65.3;45.9;;;;;;;7.13;100;968.3353;;;;
2019/05/30 03:43:18;;;;;;;50.2;39.4;;;;;;;7.16;100;968.3373;;;;
2019/05/30 03:45:52;;;;;;;55.9;42.3;;;;;;;7.17;100;968.4171;;;;
2019/05/30 03:48:18;;;;;;;44.3;37.1;;;;;;;7.26;100;968.4056;;;;
2019/05/30 03:50:43;;;;;;;46.3;37.2;;;;;;;7.26;100;968.495;;;;
2019/05/30 03:53:08;;;;;;;54;41.3;;;;;;;7.33;100;968.4892;;;;
2019/05/30 03:55:33;;;;;;;45.8;37.9;;;;;;;7.43;100;968.5242;;;;
2019/05/30 03:58:05;;;;;;;43.3;35.4;;;;;;;7.47;100;968.4615;;;;
2019/05/30 04:00:34;;;;;;;42.7;35.9;;;;;;;7.52;100;968.4788;;;;
2019/05/30 04:03:22;;;;;;;50.7;41.3;;;;;;;7.67;100;968.5862;;;;
2019/05/30 04:05:48;;;;;;;36.3;31.6;;;;;;;7.98;100;968.5228;;;;
2019/05/30 04:08:21;;;;;;;41.8;34.7;;;;;;;7.96;100;968.5245;;;;
2019/05/30 04:10:52;;;;;;;36.3;32;;;;;;;8.22;100;968.5203;;;;
2019/05/30 04:13:38;;;;;;;35.7;31.8;;;;;;;8.21;100;968.5338;;;;
2019/05/30 04:16:04;;;;;;;36.8;32.6;;;;;;;8.09;100;968.5778;;;;
2019/05/30 04:18:47;;;;;;;53.3;41;;;;;;;8.01;100;968.5544;;;;
2019/05/30 04:21:29;;;;;;;42.9;35.2;;;;;;;8.16;100;968.5381;;;;
2019/05/30 04:24:11;;;;;;;40.5;33.8;;;;;;;8.26;100;968.5045;;;;
2019/05/30 04:26:36;;;;;;;36.3;32.4;;;;;;;8.21;100;968.6142;;;;
2019/05/30 04:29:21;;;;;;;33.2;29.6;;;;;;;8.24;100;968.6379;;;;
2019/05/30 04:31:56;;;;;;;30.6;27.4;;;;;;;8.38;100;968.6223;;;;
2019/05/30 04:34:27;;;;;;;41;33.6;;;;;;;8.16;100;968.6361;;;;
2019/05/30 04:36:52;;;;;;;43;35.4;;;;;;;8.1;100;968.6361;;;;
2019/05/30 04:39:17;;;;;;;38.9;32.9;;;;;;;8.15;100;968.6831;;;;
2019/05/30 04:41:42;;;;;;;43.1;35.8;;;;;;;8.05;100;968.7425;;;;
2019/05/30 04:44:07;;;;;;;31.4;28;;;;;;;8.09;100;968.7301;;;;
2019/05/30 04:46:39;;;;;;;40;33.6;;;;;;;8.05;100;968.7935;;;;
2019/05/30 04:49:04;;;;;;;26.9;24;;;;;;;8.26;100;968.8186;;;;
2019/05/30 04:51:31;;;;;;;33;28.1;;;;;;;8.31;100;968.7766;;;;
2019/05/30 04:53:56;;;;;;;38.1;33;;;;;;;8.11;100;968.823;;;;
2019/05/30 04:56:23;;;;;;;32;28.5;;;;;;;8.11;100;968.8525;;;;
2019/05/30 04:58:49;;;;;;;33.2;29.6;;;;;;;8.25;100;968.8622;;;;
2019/05/30 05:01:17;;;;;;;32.8;29.2;;;;;;;8.37;100;968.8613;;;;
2019/05/30 05:03:42;;;;;;;27.2;24.3;;;;;;;8.51;100;968.905;;;;
2019/05/30 05:06:18;;;;;;;32.4;28.9;;;;;;;8.58;100;968.908;;;;
2019/05/30 05:08:43;;;;;;;26.3;23.5;;;;;;;8.65;100;968.94;;;;
2019/05/30 05:11:08;;;;;;;23.7;21.3;;;;;;;8.87;100;968.9391;;;;
2019/05/30 05:13:34;;;;;;;25;22.5;;;;;;;8.92;99.48047;968.9903;;;;
2019/05/30 05:16:00;;;;;;;23.1;20.6;;;;;;;9.07;98.03418;968.9816;;;;
2019/05/30 05:18:31;;;;;;;23.5;21;;;;;;;9.22;97.86914;968.9692;;;;
2019/05/30 05:20:56;;;;;;;22.7;20.4;;;;;;;9.37;97.46777;968.9608;;;;
2019/05/30 05:23:21;;;;;;;21;18.9;;;;;;;9.56;97.42773;968.9443;;;;
2019/05/30 05:25:46;;;;;;;23;20.6;;;;;;;9.63;96.38672;968.9895;;;;
2019/05/30 05:28:15;;;;;;;22.3;20.1;;;;;;;9.78;96.4209;968.8995;;;;
2019/05/30 05:30:44;;;;;;;22.8;20.5;;;;;;;9.84;95.66309;968.9199;;;;
2019/05/30 05:33:12;;;;;;;21.6;19.5;;;;;;;9.88;95.45215;968.9333;;;;
2019/05/30 05:35:37;;;;;;;23.7;21.2;;;;;;;9.9;95.0625;968.9918;;;;
2019/05/30 05:38:03;;;;;;;23.3;21;;;;;;;10;94.93555;969.0334;;;;
2019/05/30 05:40:28;;;;;;;24.3;21.9;;;;;;;10.07;95.25098;968.9636;;;;
2019/05/30 05:43:03;;;;;;;23.8;21.4;;;;;;;10.11;94.83301;968.9642;;;;
2019/05/30 05:45:28;;;;;;;23.9;21.4;;;;;;;10.16;94.1416;968.9897;;;;
2019/05/30 05:47:54;;;;;;;24.2;21.7;;;;;;;10;94.29004;969.0254;;;;
2019/05/30 05:50:19;;;;;;;25.3;22.7;;;;;;;10.22;95.21387;969.0441;;;;
2019/05/30 05:52:44;;;;;;;21.7;19.5;;;;;;;10.29;93.83594;969.0849;;;;
2019/05/30 05:55:09;;;;;;;25.4;22.8;;;;;;;10.24;94.87402;969.0638;;;;
2019/05/30 05:57:35;;;;;;;22.2;19.9;;;;;;;10.31;93.97656;969.1178;;;;
2019/05/30 06:00:07;;;;;;;23.9;21.4;;;;;;;10.2;93.74707;969.1479;;;;
2019/05/30 06:02:33;;;;;;;23.8;21.4;;;;;;;10.47;93.69043;969.1803;;;;
2019/05/30 06:04:58;;;;;;;25.3;22.4;;;;;;;10.53;93.51758;969.2388;;;;
2019/05/30 06:07:23;;;;;;;25.5;22.9;;;;;;;10.5;93.43066;969.2584;;;;
2019/05/30 06:09:48;;;;;;;22.3;20.1;;;;;;;10.73;93.56348;969.2073;;;;
2019/05/30 06:12:13;;;;;;;20.6;18.6;;;;;;;10.79;92.65137;969.2489;;;;
2019/05/30 06:14:38;;;;;;;21.7;19.5;;;;;;;10.81;92.90723;969.231;;;;
2019/05/30 06:17:17;;;;;;;24;21.5;;;;;;;10.72;91.95508;969.2001;;;;
2019/05/30 06:19:47;;;;;;;23.7;21.3;;;;;;;10.93;92.54199;969.2491;;;;
2019/05/30 06:22:14;;;;;;;24.2;21.7;;;;;;;10.91;92.20117;969.2089;;;;
2019/05/30 06:24:49;;;;;;;23.7;21.3;;;;;;;11.04;93.34961;969.2908;;;;
2019/05/30 06:27:14;;;;;;;22.5;20.3;;;;;;;11.22;91.98047;969.265;;;;
2019/05/30 06:29:54;;;;;;;23.8;21.4;;;;;;;11.1;90.26758;969.2722;;;;
2019/05/30 06:32:20;;;;;;;26.5;23.8;;;;;;;10.95;90.57031;969.2559;;;;
2019/05/30 06:35:00;;;;;;;24.9;22.3;;;;;;;11.13;91.86914;969.2951;;;;
2019/05/30 06:37:27;;;;;;;25.6;22.9;;;;;;;11.1;90.08398;969.3828;;;;
2019/05/30 06:40:19;;;;;;;23.4;21.1;;;;;;;11.3;90.18066;969.3693;;;;
2019/05/30 06:42:53;;;;;;;23.3;20.9;;;;;;;11.59;89.0625;969.3549;;;;
2019/05/30 06:45:22;;;;;;;24.4;22;;;;;;;11.51;89.47363;969.3494;;;;
2019/05/30 06:47:49;;;;;;;22.4;20.1;;;;;;;11.88;88.42871;969.3918;;;;
2019/05/30 06:50:15;;;;;;;25.1;22.5;;;;;;;11.91;89.24414;969.4445;;;;
2019/05/30 06:52:42;;;;;;;27.6;24.7;;;;;;;11.84;85.91992;969.4083;;;;
2019/05/30 06:55:08;;;;;;;23.2;20.9;;;;;;;11.89;86.79883;969.4208;;;;
2019/05/30 06:57:32;;;;;;;24.8;22.2;;;;;;;11.96;87.25293;969.4568;;;;
2019/05/30 06:59:58;;;;;;;22.3;20.1;;;;;;;12.08;84.65918;969.4666;;;;
2019/05/30 07:02:23;;;;;;;20.2;18.1;;;;;;;12.34;84.57031;969.4802;;;;
2019/05/30 07:04:49;;;;;;;22.2;19.9;;;;;;;12.58;84.33887;969.4612;;;;
2019/05/30 07:07:15;;;;;;;23.8;21.4;;;;;;;12.44;86.53809;969.5349;;;;
2019/05/30 07:09:41;;;;;;;22.5;20.3;;;;;;;12.4;85.58887;969.5563;;;;
2019/05/30 07:12:20;;;;;;;20.2;18.2;;;;;;;12.51;83.81543;969.5497;;;;
2019/05/30 07:14:47;;;;;;;22.6;20.3;;;;;;;12.62;83.67578;969.5298;;;;
2019/05/30 07:17:30;;;;;;;19.5;17.6;;;;;;;12.75;82.99219;969.5733;;;;
2019/05/30 07:20:01;;;;;;;20;18;;;;;;;12.96;83.72949;969.5519;;;;
2019/05/30 07:22:36;;;;;;;18.1;16.3;;;;;;;13.16;80.87695;969.5965;;;;
2019/05/30 07:25:13;;;;;;;18.5;16.7;;;;;;;13.38;81.9502;969.6308;;;;
2019/05/30 07:27:40;;;;;;;19.2;17;;;;;;;13.63;82.05566;969.6564;;;;
2019/05/30 07:30:08;;;;;;;19.5;17.6;;;;;;;13.31;83.63184;969.6633;;;;
2019/05/30 07:32:42;;;;;;;14.4;13;;;;;;;13.29;78.76367;969.6738;;;;
2019/05/30 07:35:07;;;;;;;15.1;13.7;;;;;;;13.56;80.20801;969.6467;;;;
2019/05/30 07:37:33;;;;;;;13.8;12.5;;;;;;;14.07;75.96094;969.6077;;;;
2019/05/30 07:40:00;;;;;;;12.6;11.3;;;;;;;13.3;76.00098;969.6135;;;;
2019/05/30 07:42:25;;;;;;;13.9;12;;;;;;;13.76;75.72168;969.6303;;;;
2019/05/30 07:44:52;;;;;;;11.1;10;;;;;;;14.67;76.46289;969.6477;;;;
2019/05/30 07:47:18;;;;;;;11.2;10.1;;;;;;;14.87;71.76563;969.5659;;;;
2019/05/30 07:49:43;;;;;;;10.3;9.4;;;;;;;15.12;71.99316;969.6163;;;;
2019/05/30 07:52:08;;;;;;;9.4;8.5;;;;;;;15.07;68.45215;969.5795;;;;
2019/05/30 07:54:33;;;;;;;10;9;;;;;;;13.67;76.8457;969.6357;;;;
2019/05/30 07:56:59;;;;;;;11.2;10.2;;;;;;;13.71;73.90137;969.6567;;;;
2019/05/30 07:59:24;;;;;;;10.5;9.5;;;;;;;13.47;75.37012;969.6512;;;;
2019/05/30 08:01:51;;;;;;;8.8;7.9;;;;;;;13.33;70.82813;969.5799;;;;
2019/05/30 08:04:22;;;;;;;9.1;8.3;;;;;;;13.62;72.45508;969.5592;;;;
2019/05/30 08:06:56;;;;;;;10.2;8.9;;;;;;;14.19;72.1084;969.6376;;;;
2019/05/30 08:09:21;;;;;;;9.8;8.8;;;;;;;14.88;68.95801;969.5655;;;;
2019/05/30 08:11:46;;;;;;;9.7;8.8;;;;;;;15.14;70.29492;969.5197;;;;
2019/05/30 08:14:11;;;;;;;9.3;8.5;;;;;;;15.41;67.71289;969.5253;;;;
2019/05/30 08:16:37;;;;;;;10.7;9.4;;;;;;;15.3;68.93262;969.5367;;;;
2019/05/30 08:19:02;;;;;;;10.2;9.2;;;;;;;14.18;72.4209;969.6128;;;;
2019/05/30 08:21:27;;;;;;;10.9;9.9;;;;;;;13.83;69.90918;969.6145;;;;
2019/05/30 08:23:52;;;;;;;9.6;8.7;;;;;;;13.49;67.8457;969.6319;;;;
2019/05/30 08:26:20;;;;;;;10.2;8.2;;;;;;;13.94;68.43848;969.6331;;;;
2019/05/30 08:28:45;;;;;;;8;7.3;;;;;;;14.82;62.79688;969.5927;;;;
2019/05/30 08:31:11;;;;;;;10;8.8;;;;;;;15.22;61.6875;969.5588;;;;
2019/05/30 08:33:36;;;;;;;9.1;8.3;;;;;;;15.11;63.10742;969.51;;;;
2019/05/30 08:36:05;;;;;;;10;9.1;;;;;;;15.61;63.53906;969.6412;;;;
2019/05/30 08:38:30;;;;;;;9.3;8.4;;;;;;;15.86;63.02832;969.5829;;;;
2019/05/30 08:41:13;;;;;;;7.3;6.6;;;;;;;15.53;61.33496;969.585;;;;
2019/05/30 08:43:50;;;;;;;6.9;6.3;;;;;;;15.78;61.98828;969.5834;;;;
2019/05/30 08:46:15;;;;;;;6.8;6.1;;;;;;;15.08;57.71484;969.5955;;;;
2019/05/30 08:48:40;;;;;;;6;5.4;;;;;;;15.91;57.90625;969.5352;;;;
2019/05/30 08:51:05;;;;;;;6.6;6;;;;;;;16.16;58.12598;969.503;;;;
2019/05/30 08:53:43;;;;;;;8.1;7;;;;;;;15.88;59.39746;969.5117;;;;
2019/05/30 08:56:11;;;;;;;6.8;6.1;;;;;;;16.36;64.39648;969.4933;;;;
2019/05/30 08:58:37;;;;;;;5.7;5.2;;;;;;;16.49;55.53809;969.4737;;;;
2019/05/30 09:01:02;;;;;;;5.3;4.8;;;;;;;16.35;58.09277;969.3741;;;;
2019/05/30 09:03:27;;;;;;;5.3;4.8;;;;;;;15.95;57.13965;969.4406;;;;
2019/05/30 09:05:55;;;;;;;5.7;4.9;;;;;;;15.72;57.12305;969.5;;;;
2019/05/30 09:08:30;;;;;;;4.8;4.3;;;;;;;15.54;58.32422;969.4377;;;;
2019/05/30 09:10:55;;;;;;;4.8;4.3;;;;;;;16.05;63.13672;969.5109;;;;
2019/05/30 09:13:39;;;;;;;5.9;5.3;;;;;;;16.01;53.74902;969.4675;;;;
2019/05/30 09:16:06;;;;;;;5.3;4.8;;;;;;;16.78;52.78906;969.394;;;;
2019/05/30 09:18:32;;;;;;;5.2;4.7;;;;;;;17.15;53.53711;969.4459;;;;
2019/05/30 09:21:17;;;;;;;4.5;4.1;;;;;;;17.49;50.27246;969.4056;;;;
2019/05/30 09:23:56;;;;;;;4.7;4.3;;;;;;;17.33;48.94141;969.4205;;;;
2019/05/30 09:26:28;;;;;;;5.1;4.6;;;;;;;17.72;50.81445;969.3962;;;;
2019/05/30 09:28:58;;;;;;;5.3;4.8;;;;;;;17.48;50.28418;969.454;;;;
2019/05/30 09:31:23;;;;;;;5;4.5;;;;;;;17.66;48.60352;969.3765;;;;
2019/05/30 09:33:56;;;;;;;5.6;4.9;;;;;;;17.34;46.97363;969.3797;;;;
2019/05/30 09:36:28;;;;;;;4.4;4;;;;;;;17.16;50.38672;969.3843;;;;
2019/05/30 09:38:53;;;;;;;4.7;3.9;;;;;;;17.78;48.74414;969.3931;;;;
2019/05/30 09:41:21;;;;;;;4.5;3.8;;;;;;;17.47;49.63672;969.447;;;;
2019/05/30 09:43:50;;;;;;;4.1;3.5;;;;;;;16.58;56.79102;969.3727;;;;
2019/05/30 09:46:15;;;;;;;4.2;3.8;;;;;;;16.22;51.06348;969.3878;;;;
2019/05/30 09:48:49;;;;;;;4.6;4.1;;;;;;;16.25;55.08789;969.4022;;;;
2019/05/30 09:51:21;;;;;;;5.7;3.7;;;;;;;16.04;51.14648;969.4133;;;;
2019/05/30 09:53:46;;;;;;;6.5;4.1;;;;;;;16.48;51.88867;969.3454;;;;
2019/05/30 09:56:14;;;;;;;4.7;4.3;;;;;;;16.89;54.35938;969.4025;;;;
2019/05/30 09:58:45;;;;;;;5.2;3.8;;;;;;;17.38;46.53223;969.3713;;;;
2019/05/30 10:01:15;;;;;;;4.5;4.1;;;;;;;17.04;49.55371;969.4025;;;;
2019/05/30 10:03:40;;;;;;;4.4;4;;;;;;;17.37;48.36035;969.2946;;;;
2019/05/30 10:06:05;;;;;;;4.6;4.2;;;;;;;17.2;49.31348;969.3749;;;;
2019/05/30 10:08:30;;;;;;;4.1;3.7;;;;;;;18.19;43.33008;969.2656;;;;
2019/05/30 10:11:22;;;;;;;4.5;3.5;;;;;;;19.15;46.21484;969.2339;;;;
2019/05/30 10:13:47;;;;;;;4.1;3.6;;;;;;;19.37;47.37793;969.2939;;;;
2019/05/30 10:16:31;;;;;;;8.3;4;;;;;;;18.42;50.29688;969.2509;;;;
2019/05/30 10:18:56;;;;;;;5.5;3.7;;;;;;;18.62;47.48633;969.2134;;;;
2019/05/30 10:21:29;;;;;;;3.5;3.2;;;;;;;19.07;49.90039;969.1795;;;;
2019/05/30 10:23:56;;;;;;;3.8;3.4;;;;;;;18.58;48.18848;969.2699;;;;
2019/05/30 10:26:44;;;;;;;4.7;3.8;;;;;;;18.31;44.64551;969.3425;;;;
2019/05/30 10:29:25;;;;;;;3.9;3.5;;;;;;;18.03;44.91113;969.2813;;;;
2019/05/30 10:32:01;;;;;;;3.8;3.5;;;;;;;16.86;48.18652;969.2289;;;;
2019/05/30 10:34:41;;;;;;;4.1;3.5;;;;;;;16.14;50.36426;969.2115;;;;
2019/05/30 10:37:24;;;;;;;3.2;2.9;;;;;;;16.31;49.75;969.2063;;;;
2019/05/30 10:39:49;;;;;;;3.2;2.9;;;;;;;17.59;46.56543;969.2385;;;;
2019/05/30 10:42:14;;;;;;;5;3.4;;;;;;;19.53;39.76367;969.2608;;;;
2019/05/30 10:44:39;;;;;;;3.4;3.1;;;;;;;20.09;36.8418;969.1504;;;;
2019/05/30 10:47:22;;;;;;;3;2.7;;;;;;;20.11;42.19922;969.2036;;;;
2019/05/30 10:49:50;;;;;;;4;3.1;;;;;;;19.75;46.15918;969.1498;;;;
2019/05/30 10:52:25;;;;;;;3;2.7;;;;;;;18.98;41.05566;969.0783;;;;
2019/05/30 10:54:50;;;;;;;2.7;2.4;;;;;;;18;47.3252;969.1294;;;;
2019/05/30 10:57:16;;;;;;;4.5;3;;;;;;;16.66;43.47168;969.0975;;;;
2019/05/30 10:59:43;;;;;;;3;2.7;;;;;;;16.82;45.39648;969.1689;;;;
2019/05/30 11:02:08;;;;;;;3;2.6;;;;;;;17.26;47.90332;969.1348;;;;
2019/05/30 11:04:33;;;;;;;3.6;2.6;;;;;;;17.19;47.0752;969.1221;;;;
2019/05/30 11:06:58;;;;;;;3;2.2;;;;;;;17.61;48.63184;969.133;;;;
2019/05/30 11:09:23;;;;;;;3.8;2.7;;;;;;;17.11;49.7373;969.1528;;;;
2019/05/30 11:11:49;;;;;;;3.9;2.5;;;;;;;16.9;47.03223;969.0605;;;;
2019/05/30 11:14:14;;;;;;;2.8;2.4;;;;;;;18.45;44.42578;969.0056;;;;
2019/05/30 11:16:40;;;;;;;3.7;2.7;;;;;;;18.25;44.05176;968.9743;;;;
2019/05/30 11:19:05;;;;;;;2.7;2.3;;;;;;;19.39;41.95313;969.0096;;;;
2019/05/30 11:21:36;;;;;;;4.2;2.9;;;;;;;19.38;39.59668;968.9115;;;;
2019/05/30 11:24:01;;;;;;;3.2;2.5;;;;;;;18.96;42.54785;968.9595;;;;
2019/05/30 11:26:26;;;;;;;3.4;3;;;;;;;20.41;37.50684;968.8867;;;;
2019/05/30 11:28:51;;;;;;;3.3;2.5;;;;;;;20.46;43.9082;968.8588;;;;
2019/05/30 11:31:16;;;;;;;3.2;2.7;;;;;;;21.15;43.9541;968.8884;;;;
2019/05/30 11:33:41;;;;;;;3.6;2.9;;;;;;;20.48;38.16113;968.8529;;;;
2019/05/30 11:36:06;;;;;;;4.8;2.8;;;;;;;21.49;38.49609;968.8354;;;;
2019/05/30 11:38:34;;;;;;;2.8;2.5;;;;;;;23.62;42.15234;968.8028;;;;
2019/05/30 11:41:00;;;;;;;3.2;2.1;;;;;;;22.02;36.80273;968.688;;;;
2019/05/30 11:43:27;;;;;;;4.6;1.9;;;;;;;23.21;35.91406;968.7607;;;;
2019/05/30 11:45:53;;;;;;;3.4;1.9;;;;;;;22.31;32.14453;968.7224;;;;
2019/05/30 11:48:22;;;;;;;3;1.8;;;;;;;22.27;30.8252;968.7497;;;;
2019/05/30 11:51:05;;;;;;;2.6;2.1;;;;;;;21.15;31.28027;968.7283;;;;
2019/05/30 11:53:39;;;;;;;2.5;2;;;;;;;19.18;35.05957;968.7081;;;;
2019/05/30 11:56:06;;;;;;;3.5;2.1;;;;;;;18.79;40.86133;968.6572;;;;
2019/05/30 11:58:31;;;;;;;3.6;2.1;;;;;;;18.76;40.37598;968.7169;;;;
2019/05/30 12:00:57;;;;;;;2.3;2;;;;;;;18.28;39.60449;968.7234;;;;
2019/05/30 12:03:22;;;;;;;3.1;1.8;;;;;;;18.78;37.25098;968.6533;;;;
2019/05/30 12:05:51;;;;;;;3.1;2.1;;;;;;;18.65;39.41406;968.6961;;;;
2019/05/30 12:08:16;;;;;;;2.5;2.3;;;;;;;18.73;38.77344;968.639;;;;
2019/05/30 12:10:41;;;;;;;3.2;2;;;;;;;19.1;38.5127;968.6878;;;;
2019/05/30 12:15:29;;;;;;;2.9;2.1;;;;;;;20.4;38.24902;968.7195;;;;
2019/05/30 12:17:54;;;;;;;2.9;2.5;;;;;;;19.56;33.12305;968.7802;;;;
2019/05/30 12:20:19;;;;;;;2.9;2.2;;;;;;;20.63;31.24316;968.7458;;;;
2019/05/30 12:22:44;;;;;;;2.3;1.9;;;;;;;20.45;34.02832;968.6955;;;;
2019/05/30 12:25:22;;;;;;;2.1;1.9;;;;;;;21.52;32.0752;968.7222;;;;
2019/05/30 12:27:52;;;;;;;2.3;1.8;;;;;;;20.74;31.64063;968.7015;;;;
2019/05/30 12:30:21;;;;;;;3.8;2.4;;;;;;;21.16;30.52344;968.7355;;;;
2019/05/30 12:33:01;;;;;;;2.4;2.1;;;;;;;21.6;31.5957;968.6816;;;;
2019/05/30 12:35:28;;;;;;;2.3;2.1;;;;;;;23.97;27.14844;968.5911;;;;
2019/05/30 12:37:58;;;;;;;3;2.2;;;;;;;22.31;30.18848;968.618;;;;
2019/05/30 12:40:24;;;;;;;3;2.1;;;;;;;23.54;30.11719;968.5525;;;;
2019/05/30 12:43:10;;;;;;;3;2.7;;;;;;;21.36;31.06934;968.5576;;;;
2019/05/30 12:45:37;;;;;;;3.2;2.2;;;;;;;22.47;30.44824;968.5613;;;;
2019/05/30 12:48:16;;;;;;;4.2;2.3;;;;;;;22.72;29.68262;968.4775;;;;
2019/05/30 12:50:43;;;;;;;3.2;2;;;;;;;23.78;28.6709;968.465;;;;
2019/05/30 12:53:09;;;;;;;2.7;2.2;;;;;;;22.82;27.06641;968.4242;;;;
2019/05/30 12:55:34;;;;;;;2.4;2.1;;;;;;;24.21;29.38867;968.39;;;;
2019/05/30 12:58:04;;;;;;;2.1;1.8;;;;;;;24.68;31.81543;968.4416;;;;
2019/05/30 13:00:29;;;;;;;3.7;2.1;;;;;;;24.7;26.51367;968.4955;;;;
2019/05/30 13:03:15;;;;;;;3.1;2;;;;;;;22.46;28.33691;968.462;;;;
2019/05/30 13:05:41;;;;;;;2.5;2;;;;;;;23.18;31.25684;968.4606;;;;
2019/05/30 13:08:09;;;;;;;2.6;2.1;;;;;;;23.92;31.45117;968.4892;;;;
2019/05/30 13:10:34;;;;;;;2.4;1.8;;;;;;;24.34;26.79004;968.4572;;;;
2019/05/30 13:12:59;;;;;;;2.2;1.6;;;;;;;23.56;30.80762;968.4368;;;;
2019/05/30 13:15:32;;;;;;;2.2;2;;;;;;;21.73;33.23828;968.4944;;;;
2019/05/30 13:18:13;;;;;;;2.5;1.9;;;;;;;23.22;28.24316;968.4109;;;;
2019/05/30 13:20:39;;;;;;;3.6;1.8;;;;;;;22.97;30.80273;968.4128;;;;
2019/05/30 13:23:04;;;;;;;2.1;1.8;;;;;;;22.45;28.97656;968.3549;;;;
2019/05/30 13:25:29;;;;;;;2.1;1.5;;;;;;;24.25;29.70117;968.4054;;;;
2019/05/30 13:27:54;;;;;;;3.5;1.7;;;;;;;21.71;30.50293;968.4014;;;;
2019/05/30 13:30:34;;;;;;;2.4;1.9;;;;;;;20.15;32.625;968.3748;;;;
2019/05/30 13:33:01;;;;;;;2.9;2.1;;;;;;;18.91;36.40234;968.3566;;;;
2019/05/30 13:35:26;;;;;;;3.5;2.1;;;;;;;18.92;36.15625;968.3516;;;;
2019/05/30 13:37:51;;;;;;;2.5;1.9;;;;;;;19.47;35.2832;968.3156;;;;
2019/05/30 13:40:16;;;;;;;2.4;1.8;;;;;;;20.01;32.46094;968.3289;;;;
2019/05/30 13:42:41;;;;;;;3.3;1.8;;;;;;;22.6;29.06934;968.2781;;;;
2019/05/30 13:45:10;;;;;;;2.8;2.3;;;;;;;21.48;30.59375;968.2975;;;;
2019/05/30 13:47:39;;;;;;;2.3;1.8;;;;;;;21.13;33.35938;968.2578;;;;
2019/05/30 13:50:04;;;;;;;4.4;2.2;;;;;;;20.09;34.45996;968.2747;;;;
2019/05/30 13:52:36;;;;;;;2;1.8;;;;;;;19.58;41.55957;968.3878;;;;
2019/05/30 13:55:01;;;;;;;3.1;1.7;;;;;;;20.79;33.22754;968.3691;;;;
2019/05/30 13:57:26;;;;;;;3.4;1.8;;;;;;;23.17;28.79785;968.3181;;;;
2019/05/30 13:59:51;;;;;;;3.5;1.9;;;;;;;22.94;30.40918;968.4254;;;;
2019/05/30 14:02:16;;;;;;;3.2;1.9;;;;;;;21.98;31.05371;968.4256;;;;
2019/05/30 14:04:41;;;;;;;2.1;1.5;;;;;;;21.69;32.04004;968.3254;;;;
2019/05/30 14:07:19;;;;;;;2.9;1.9;;;;;;;22.38;29.77734;968.3042;;;;
2019/05/30 14:09:44;;;;;;;3.3;1.9;;;;;;;22.39;31.61621;968.2889;;;;
2019/05/30 14:12:09;;;;;;;3.9;1.9;;;;;;;23.05;30.42871;968.3003;;;;
2019/05/30 14:14:34;;;;;;;2.4;1.8;;;;;;;22.75;29.18555;968.2693;;;;
2019/05/30 14:17:00;;;;;;;2.6;2.1;;;;;;;22.14;32.03711;968.2762;;;;
2019/05/30 14:19:25;;;;;;;2.4;1.9;;;;;;;22.98;29.39063;968.2985;;;;
2019/05/30 14:21:50;;;;;;;2.7;1.7;;;;;;;22.75;31.29883;968.2775;;;;
2019/05/30 14:24:15;;;;;;;2.2;1.6;;;;;;;25.8;28.10742;968.2941;;;;
2019/05/30 14:26:40;;;;;;;2.7;1.8;;;;;;;22.39;30.20605;968.2628;;;;
2019/05/30 14:29:06;;;;;;;2.4;1.7;;;;;;;20.32;32.82617;968.3137;;;;
2019/05/30 14:31:31;;;;;;;3;1.9;;;;;;;20.23;34.75488;968.3818;;;;
2019/05/30 14:34:12;;;;;;;1.7;1.6;;;;;;;20.67;34.10352;968.3373;;;;
2019/05/30 14:36:42;;;;;;;3;1.8;;;;;;;20.96;34.12598;968.3806;;;;
2019/05/30 14:39:14;;;;;;;3.1;1.7;;;;;;;22.5;29.95215;968.3131;;;;
2019/05/30 14:41:44;;;;;;;2;1.5;;;;;;;24.16;29.59961;968.3131;;;;
2019/05/30 14:44:27;;;;;;;2.3;1.9;;;;;;;25.91;24.53027;968.3067;;;;
2019/05/30 14:46:55;;;;;;;2.1;1.8;;;;;;;22.49;28.7666;968.3665;;;;
2019/05/30 14:49:20;;;;;;;1.9;1.7;;;;;;;26.1;25.37793;968.3306;;;;
2019/05/30 14:51:48;;;;;;;2.8;1.7;;;;;;;23.94;28.20508;968.347;;;;